createdAt,value
2023-03-25T06:19:52.442Z,10.51
2023-03-25T06:22:22.325Z,10.50
2023-03-25T06:24:52.541Z,10.49
2023-03-25T06:27:22.229Z,10.49
2023-03-25T06:29:51.096Z,10.47
2023-03-25T06:32:19.736Z,10.46
2023-03-25T06:34:48.309Z,10.46
2023-03-25T06:37:16.876Z,10.46
2023-03-25T06:39:50.181Z,10.47
2023-03-25T06:42:21.979Z,10.46
2023-03-25T06:45:11.208Z,10.43
2023-03-25T06:47:46.530Z,10.43
2023-03-25T06:50:17.474Z,10.46
2023-03-25T06:52:46.516Z,10.49
2023-03-25T06:55:16.185Z,10.51
2023-03-25T06:57:48.674Z,10.55
2023-03-25T07:00:23.531Z,10.57
2023-03-25T07:02:52.226Z,10.56
2023-03-25T07:05:20.905Z,10.59
2023-03-25T07:07:49.591Z,10.62
2023-03-25T07:10:18.288Z,10.67
2023-03-25T07:12:49.829Z,10.72
2023-03-25T07:15:18.450Z,10.76
2023-03-25T07:17:49.620Z,10.78
2023-03-25T07:20:18.271Z,10.81
2023-03-25T07:22:46.896Z,10.84
2023-03-25T07:25:15.828Z,10.84
2023-03-25T07:27:46.599Z,10.86
2023-03-25T07:30:20.134Z,10.88
2023-03-25T07:32:48.741Z,10.91
2023-03-25T07:35:17.353Z,10.93
2023-03-25T07:37:48.638Z,10.97
2023-03-25T07:40:20.021Z,11.02
2023-03-25T07:42:51.764Z,11.04
2023-03-25T07:45:43.621Z,11.05
2023-03-25T07:48:16.859Z,11.06
2023-03-25T07:50:53.249Z,11.09
2023-03-25T07:53:22.359Z,11.13
2023-03-25T07:55:58.581Z,11.19
2023-03-25T07:58:31.568Z,11.23
2023-03-25T08:01:00.141Z,11.25
2023-03-25T08:03:32.350Z,11.27
2023-03-25T08:06:02.580Z,11.31
2023-03-25T08:08:31.117Z,11.37
2023-03-25T08:10:59.953Z,11.43
2023-03-25T08:13:28.526Z,11.49
2023-03-25T08:16:01.790Z,11.54
2023-03-25T08:18:30.685Z,11.58
2023-03-25T08:20:59.403Z,11.62
2023-03-25T08:23:30.958Z,11.67
2023-03-25T08:26:00.091Z,11.73
2023-03-25T08:28:31.848Z,11.77
2023-03-25T08:31:09.093Z,11.81
2023-03-25T08:33:41.159Z,11.81
2023-03-25T08:36:20.205Z,11.82
2023-03-25T08:38:49.693Z,11.82
2023-03-25T08:41:18.851Z,11.85
2023-03-25T08:43:47.651Z,11.87
2023-03-25T08:46:16.868Z,11.90
2023-03-25T08:48:45.593Z,11.97
2023-03-25T08:51:14.258Z,12.04
2023-03-25T08:53:43.013Z,12.10
2023-03-25T08:56:11.585Z,12.13
2023-03-25T08:58:40.178Z,12.16
2023-03-25T09:01:09.351Z,12.24
2023-03-25T09:03:38.959Z,12.35
2023-03-25T09:06:09.653Z,12.42
2023-03-25T09:08:38.531Z,12.49
2023-03-25T09:11:07.406Z,12.53
2023-03-25T09:13:36.037Z,12.56
2023-03-25T09:16:05.091Z,12.60
2023-03-25T09:18:33.793Z,12.64
2023-03-25T09:21:02.454Z,12.67
2023-03-25T09:23:30.982Z,12.68
2023-03-25T09:26:05.374Z,12.68
2023-03-25T09:28:33.786Z,12.69
2023-03-25T09:31:02.412Z,12.67
2023-03-25T09:33:31.146Z,12.68
2023-03-25T09:36:02.907Z,12.70
2023-03-25T09:38:31.487Z,12.69
2023-03-25T09:41:17.051Z,12.65
2023-03-25T09:44:10.492Z,12.62
2023-03-25T09:46:44.674Z,12.59
2023-03-25T09:49:26.090Z,12.59
2023-03-25T09:51:57.894Z,12.61
2023-03-25T09:54:33.380Z,12.65
2023-03-25T09:57:07.523Z,12.73
2023-03-25T09:59:49.393Z,12.77
2023-03-25T10:02:42.186Z,12.81
2023-03-25T10:05:47.439Z,12.87
2023-03-25T10:08:26.632Z,12.92
2023-03-25T10:11:26.183Z,12.98
2023-03-25T10:14:12.123Z,13.05
2023-03-25T10:17:11.418Z,13.11
2023-03-25T10:20:11.613Z,13.19
2023-03-25T10:22:58.555Z,13.31
2023-03-25T10:25:31.394Z,13.41
2023-03-25T10:28:05.431Z,13.49
2023-03-25T10:30:45.959Z,13.58
2023-03-25T10:33:33.325Z,13.68
2023-03-25T10:36:03.886Z,13.76
2023-03-25T10:38:36.687Z,13.83
2023-03-25T10:41:23.103Z,13.88
2023-03-25T10:43:57.001Z,13.93
2023-03-25T10:46:47.919Z,13.98
2023-03-25T10:49:21.424Z,14.03
2023-03-25T10:51:57.758Z,14.09
2023-03-25T10:54:32.145Z,14.13
2023-03-25T10:57:06.266Z,14.18
2023-03-25T10:59:38.625Z,14.20
2023-03-25T11:02:19.013Z,14.20
2023-03-25T11:04:51.346Z,14.21
2023-03-25T11:07:45.961Z,14.21
2023-03-25T11:10:15.010Z,14.20
2023-03-25T11:12:48.364Z,14.18
2023-03-25T11:15:34.550Z,14.17
2023-03-25T11:18:15.485Z,14.14
2023-03-25T11:20:51.109Z,14.14
2023-03-25T11:23:26.469Z,14.15
2023-03-25T11:26:01.738Z,14.17
2023-03-25T11:28:42.569Z,14.18
2023-03-25T11:31:25.454Z,14.18
2023-03-25T11:34:21.333Z,14.17
2023-03-25T11:36:59.122Z,14.19
2023-03-25T11:39:40.663Z,14.22
2023-03-25T11:42:35.917Z,14.26
2023-03-25T11:45:05.481Z,14.30
2023-03-25T11:47:38.619Z,14.35
2023-03-25T11:50:08.093Z,14.45
2023-03-25T11:52:45.973Z,14.55
2023-03-25T11:55:24.178Z,14.66
2023-03-25T11:57:56.695Z,14.79
2023-03-25T12:00:25.250Z,14.96
2023-03-25T12:03:03.160Z,15.11
2023-03-25T12:05:32.838Z,15.24
2023-03-25T12:08:15.653Z,15.30
2023-03-25T12:11:14.446Z,15.38
2023-03-25T12:14:20.776Z,15.45
2023-03-25T12:17:15.570Z,15.48
2023-03-25T12:20:15.604Z,15.47
2023-03-25T12:23:03.648Z,15.40
2023-03-25T12:25:40.221Z,15.38
2023-03-25T12:28:51.881Z,15.29
2023-03-25T12:31:40.889Z,15.23
2023-03-25T12:34:17.634Z,15.20
2023-03-25T12:37:25.241Z,15.16
2023-03-25T12:40:21.753Z,15.05
2023-03-25T12:43:14.854Z,14.96
2023-03-25T12:46:05.368Z,14.88
2023-03-25T12:48:33.880Z,14.83
2023-03-25T12:51:35.779Z,14.67
2023-03-25T12:54:36.577Z,14.52
2023-03-25T12:57:36.239Z,14.41
2023-03-25T13:00:28.887Z,14.27
2023-03-25T13:03:05.604Z,14.15
2023-03-25T13:05:45.897Z,14.09
2023-03-25T13:08:24.515Z,14.06
2023-03-25T13:11:03.260Z,14.05
2023-03-25T13:13:35.949Z,14.05
2023-03-25T13:16:27.065Z,14.06
2023-03-25T13:19:06.437Z,14.05
2023-03-25T13:21:46.658Z,14.02
2023-03-25T13:24:26.978Z,13.94
2023-03-25T13:26:57.204Z,13.92
2023-03-25T13:29:32.041Z,13.90
2023-03-25T13:32:15.918Z,13.90
2023-03-25T13:34:52.835Z,13.84
2023-03-25T13:37:39.771Z,13.88
2023-03-25T13:40:14.349Z,13.93
2023-03-25T13:43:05.594Z,13.94
2023-03-25T13:45:40.324Z,14.08
2023-03-25T13:48:18.728Z,14.22
2023-03-25T13:50:47.868Z,14.38
2023-03-25T13:53:22.154Z,14.48
2023-03-25T13:56:28.550Z,14.50
2023-03-25T13:59:19.511Z,14.51
2023-03-25T14:01:51.486Z,14.44
2023-03-25T14:04:54.490Z,14.45
2023-03-25T14:07:45.592Z,14.50
2023-03-25T14:10:50.224Z,14.52
2023-03-25T14:13:36.749Z,14.48
2023-03-25T14:16:11.127Z,14.44
2023-03-25T14:18:48.176Z,14.36
2023-03-25T14:21:51.295Z,14.29
2023-03-25T14:24:36.394Z,14.23
2023-03-25T14:27:26.353Z,14.18
2023-03-25T14:29:59.040Z,14.12
2023-03-25T14:32:32.744Z,14.06
2023-03-25T14:35:38.809Z,14.01
2023-03-25T14:38:10.242Z,14.00
2023-03-25T14:40:50.869Z,13.97
2023-03-25T14:43:46.939Z,13.94
2023-03-25T14:46:23.680Z,13.92
2023-03-25T14:49:18.702Z,13.89
2023-03-25T14:51:51.704Z,13.86
2023-03-25T14:54:31.177Z,13.85
2023-03-25T14:57:35.266Z,13.85
2023-03-25T15:00:14.233Z,13.86
2023-03-25T15:02:49.987Z,13.86
2023-03-25T15:05:27.387Z,13.91
2023-03-25T15:08:19.368Z,13.99
2023-03-25T15:11:12.265Z,14.05
2023-03-25T15:13:52.968Z,14.09
2023-03-25T15:16:37.957Z,14.11
2023-03-25T15:19:09.281Z,14.11
2023-03-25T15:22:07.823Z,14.10
2023-03-25T15:24:39.201Z,14.09
2023-03-25T15:27:46.534Z,14.11
2023-03-25T15:30:36.729Z,14.12
2023-03-25T15:33:25.844Z,14.12
2023-03-25T15:36:33.120Z,14.10
2023-03-25T15:39:17.130Z,14.08
2023-03-25T15:42:05.325Z,14.07
2023-03-25T15:44:49.682Z,14.06
2023-03-25T15:47:21.007Z,14.01
2023-03-25T15:50:03.274Z,13.97
2023-03-25T15:52:59.888Z,13.89
2023-03-25T15:55:53.257Z,13.88
2023-03-25T15:58:29.842Z,13.87
2023-03-25T16:01:17.139Z,13.82
2023-03-25T16:03:49.525Z,13.67
2023-03-25T16:06:21.206Z,13.53
2023-03-25T16:08:50.810Z,13.42
2023-03-25T16:11:22.282Z,13.31
2023-03-25T16:14:17.599Z,13.18
2023-03-25T16:16:54.366Z,13.07
2023-03-25T16:19:32.168Z,12.98
2023-03-25T16:22:03.901Z,12.91
2023-03-25T16:24:34.730Z,12.84
2023-03-25T16:27:19.795Z,12.78
2023-03-25T16:29:54.192Z,12.71
2023-03-25T16:32:27.235Z,12.65
2023-03-25T16:34:55.860Z,12.59
2023-03-25T16:37:25.563Z,12.53
2023-03-25T16:40:08.027Z,12.50
2023-03-25T16:42:37.444Z,12.46
2023-03-25T16:45:07.425Z,12.42
2023-03-25T16:47:39.088Z,12.40
2023-03-25T16:50:15.842Z,12.36
2023-03-25T16:52:44.777Z,12.33
2023-03-25T16:55:30.195Z,12.28
2023-03-25T16:58:02.417Z,12.23
2023-03-25T17:00:43.436Z,12.18
2023-03-25T17:03:20.344Z,12.13
2023-03-25T17:06:07.085Z,12.08
2023-03-25T17:08:36.336Z,12.01
2023-03-25T17:11:09.243Z,11.95
2023-03-25T17:13:58.877Z,11.89
2023-03-25T17:16:30.517Z,11.82
2023-03-25T17:19:04.671Z,11.78
2023-03-25T17:21:34.812Z,11.72
2023-03-25T17:24:21.482Z,11.70
2023-03-25T17:27:07.827Z,11.69
2023-03-25T17:29:50.479Z,11.69
2023-03-25T17:32:19.150Z,11.67
2023-03-25T17:35:02.206Z,11.66
2023-03-25T17:37:31.060Z,11.63
2023-03-25T17:40:11.740Z,11.56
2023-03-25T17:42:41.096Z,11.51
2023-03-25T17:45:14.883Z,11.45
2023-03-25T17:47:43.773Z,11.39
2023-03-25T17:50:28.721Z,11.32
2023-03-25T17:53:01.068Z,11.25
2023-03-25T17:55:29.938Z,11.18
2023-03-25T17:57:59.607Z,11.13
2023-03-25T18:00:33.272Z,11.08
2023-03-25T18:03:02.272Z,11.03
2023-03-25T18:05:30.870Z,10.97
2023-03-25T18:08:00.389Z,10.92
2023-03-25T18:10:31.152Z,10.87
2023-03-25T18:13:01.192Z,10.81
2023-03-25T18:15:30.377Z,10.75
2023-03-25T18:18:02.058Z,10.68
2023-03-25T18:20:33.917Z,10.64
2023-03-25T18:23:05.323Z,10.64
2023-03-25T18:25:42.367Z,10.65
2023-03-25T18:28:15.228Z,10.67
2023-03-25T18:30:54.341Z,10.70
2023-03-25T18:33:24.103Z,10.70
2023-03-25T18:35:53.169Z,10.70
2023-03-25T18:38:24.696Z,10.66
2023-03-25T18:40:55.475Z,10.63
2023-03-25T18:43:26.951Z,10.63
2023-03-25T18:45:58.575Z,10.63
2023-03-25T18:48:29.888Z,10.60
2023-03-25T18:51:01.128Z,10.58
2023-03-25T18:53:36.889Z,10.59
2023-03-25T18:56:09.058Z,10.61
2023-03-25T18:58:37.859Z,10.60
2023-03-25T19:01:07.810Z,10.65
2023-03-25T19:03:39.422Z,10.65
2023-03-25T19:06:14.749Z,10.58
2023-03-25T19:08:44.552Z,10.54
2023-03-25T19:11:20.934Z,10.52
2023-03-25T19:13:52.114Z,10.50
2023-03-25T19:16:23.250Z,10.48
2023-03-25T19:18:51.966Z,10.45
2023-03-25T19:21:20.779Z,10.39
2023-03-25T19:23:49.488Z,10.33
2023-03-25T19:26:20.606Z,10.31
2023-03-25T19:28:49.120Z,10.30
2023-03-25T19:31:20.173Z,10.29
2023-03-25T19:33:48.831Z,10.35
2023-03-25T19:36:19.168Z,10.36
2023-03-25T19:38:53.382Z,10.34
2023-03-25T19:41:22.752Z,10.35
2023-03-25T19:43:51.414Z,10.39
2023-03-25T19:46:23.907Z,10.40
2023-03-25T19:48:57.102Z,10.42
2023-03-25T19:51:25.707Z,10.40
2023-03-25T19:53:55.094Z,10.39
2023-03-25T19:56:23.844Z,10.38
2023-03-25T19:58:52.393Z,10.33
2023-03-25T20:01:22.772Z,10.27
2023-03-25T20:03:51.537Z,10.25
2023-03-25T20:06:20.140Z,10.24
2023-03-25T20:08:48.592Z,10.28
2023-03-25T20:11:17.146Z,10.35
2023-03-25T20:13:52.206Z,10.37
2023-03-25T20:16:22.058Z,10.35
2023-03-25T20:18:50.752Z,10.33
2023-03-25T20:21:21.869Z,10.32
2023-03-25T20:23:52.339Z,10.32
2023-03-25T20:26:20.950Z,10.36
2023-03-25T20:28:51.949Z,10.37
2023-03-25T20:31:23.564Z,10.37
2023-03-25T20:33:52.692Z,10.36
2023-03-25T20:36:21.995Z,10.32
2023-03-25T20:38:57.313Z,10.30
2023-03-25T20:41:27.739Z,10.30
2023-03-25T20:43:56.464Z,10.32
2023-03-25T20:46:28.769Z,10.34
2023-03-25T20:48:58.930Z,10.32
2023-03-25T20:51:27.774Z,10.30
2023-03-25T20:53:58.319Z,10.27
2023-03-25T20:56:27.660Z,10.25
2023-03-25T20:58:56.259Z,10.25
2023-03-25T21:01:25.569Z,10.27
2023-03-25T21:03:54.430Z,10.27
2023-03-25T21:06:26.666Z,10.25
2023-03-25T21:08:59.537Z,10.24
2023-03-25T21:11:32.681Z,10.23
2023-03-25T21:14:01.459Z,10.24
2023-03-25T21:16:30.258Z,10.25
2023-03-25T21:19:02.072Z,10.27
2023-03-25T21:21:31.982Z,10.28
2023-03-25T21:24:01.327Z,10.27
2023-03-25T21:26:31.172Z,10.28
2023-03-25T21:29:00.125Z,10.28
2023-03-25T21:31:29.666Z,10.26
2023-03-25T21:33:58.535Z,10.25
2023-03-25T21:36:30.006Z,10.28
2023-03-25T21:39:01.451Z,10.32
2023-03-25T21:41:30.948Z,10.33
2023-03-25T21:43:59.847Z,10.32
2023-03-25T21:46:28.447Z,10.29
2023-03-25T21:49:01.341Z,10.27
2023-03-25T21:51:36.151Z,10.25
2023-03-25T21:54:07.563Z,10.24
2023-03-25T21:56:42.489Z,10.24
2023-03-25T21:59:11.628Z,10.26
2023-03-25T22:01:42.704Z,10.30
2023-03-25T22:04:11.308Z,10.31
2023-03-25T22:06:42.762Z,10.29
2023-03-25T22:09:11.407Z,10.30
2023-03-25T22:11:40.108Z,10.34
2023-03-25T22:14:09.877Z,10.39
2023-03-25T22:16:38.771Z,10.41
2023-03-25T22:19:07.796Z,10.41
2023-03-25T22:21:38.248Z,10.43
2023-03-25T22:24:08.414Z,10.45
2023-03-25T22:26:42.592Z,10.44
2023-03-25T22:29:11.624Z,10.42
2023-03-25T22:31:40.733Z,10.33
2023-03-25T22:34:15.276Z,10.27
2023-03-25T22:36:50.443Z,10.24
2023-03-25T22:39:21.146Z,10.21
2023-03-25T22:41:49.811Z,10.15
2023-03-25T22:44:19.327Z,10.12
2023-03-25T22:46:49.281Z,10.07
2023-03-25T22:49:18.576Z,10.01
2023-03-25T22:51:47.306Z,9.96
2023-03-25T22:54:15.853Z,9.90
2023-03-25T22:56:44.425Z,9.83
2023-03-25T22:59:15.615Z,9.74
2023-03-25T23:01:44.211Z,9.66
2023-03-25T23:04:12.909Z,9.60
2023-03-25T23:06:42.037Z,9.58
2023-03-25T23:09:11.462Z,9.57
2023-03-25T23:11:40.311Z,9.55
2023-03-25T23:14:11.329Z,9.52
2023-03-25T23:16:41.939Z,9.50
2023-03-25T23:19:10.809Z,9.47
2023-03-25T23:21:40.710Z,9.45
2023-03-25T23:24:09.259Z,9.41
2023-03-25T23:26:40.351Z,9.34
2023-03-25T23:29:12.062Z,9.29
2023-03-25T23:31:43.546Z,9.28
2023-03-25T23:34:17.008Z,9.27
2023-03-25T23:36:46.795Z,9.26
2023-03-25T23:39:17.472Z,9.27
2023-03-25T23:41:45.990Z,9.29
2023-03-25T23:44:14.638Z,9.28
2023-03-25T23:46:44.049Z,9.26
2023-03-25T23:49:13.575Z,9.24
2023-03-25T23:51:42.624Z,9.24
2023-03-25T23:54:13.620Z,9.23
2023-03-25T23:56:43.259Z,9.21
2023-03-25T23:59:12.399Z,9.17
